Time;durP1;ratioP1;P1;durP2;ratioP2;P2;SDS_P1;SDS_P2;PMS_P1;PMS_P2;Temp;Humidity;BMP_temperature;BMP_pressure;BME280_temperature;BME280_humidity;BME280_pressure;Samples;Min_cycle;Max_cycle;Signal;HPM_P1;HPM_P2
2021/01/07 00:01:00;;;;;;;22.00;17.73;;;7.20;84.70;;;;;;5070131;28;20678;-47
2021/01/07 00:03:26;;;;;;;23.43;16.57;;;7.10;85.00;;;;;;5069978;28;20647;-47
2021/01/07 00:05:53;;;;;;;25.27;18.83;;;7.00;85.20;;;;;;5069680;28;21166;-48
2021/01/07 00:08:21;;;;;;;23.57;17.07;;;6.80;85.50;;;;;;5070051;28;21202;-49
2021/01/07 00:10:47;;;;;;;25.67;18.47;;;6.70;86.90;;;;;;5069839;28;20989;-49
2021/01/07 00:13:14;;;;;;;22.23;17.50;;;6.70;87.40;;;;;;5070112;28;20663;-50
2021/01/07 00:15:41;;;;;;;23.87;18.50;;;6.70;87.50;;;;;;5069714;28;20673;-48
2021/01/07 00:18:09;;;;;;;27.13;20.90;;;6.80;87.40;;;;;;5070098;28;20635;-48
2021/01/07 00:20:35;;;;;;;22.30;17.00;;;6.90;87.00;;;;;;5067455;28;20632;-49
2021/01/07 00:23:02;;;;;;;24.13;18.27;;;7.10;86.60;;;;;;5069128;28;20622;-49
2021/01/07 00:25:30;;;;;;;22.33;18.90;;;7.10;85.70;;;;;;5069228;28;20661;-49
2021/01/07 00:27:57;;;;;;;24.30;16.27;;;7.00;85.80;;;;;;5069014;28;20652;-50
2021/01/07 00:30:23;;;;;;;27.17;20.17;;;7.00;86.40;;;;;;5069366;28;20625;-49
2021/01/07 00:32:50;;;;;;;21.20;17.30;;;7.10;86.10;;;;;;5068942;28;20706;-48
2021/01/07 00:35:17;;;;;;;28.37;19.90;;;7.00;85.70;;;;;;5068858;28;20666;-49
2021/01/07 00:37:44;;;;;;;23.73;18.13;;;7.00;85.80;;;;;;5069638;28;20638;-49
2021/01/07 00:40:11;;;;;;;22.73;18.13;;;7.00;85.80;;;;;;5069840;28;20637;-49
2021/01/07 00:42:39;;;;;;;23.70;17.80;;;7.00;86.10;;;;;;5070233;28;20651;-50
2021/01/07 00:45:06;;;;;;;20.20;16.73;;;7.10;85.90;;;;;;5069713;28;21022;-50
2021/01/07 00:47:33;;;;;;;24.53;17.80;;;7.00;85.60;;;;;;5069146;28;20657;-48
2021/01/07 00:50:00;;;;;;;22.87;16.57;;;7.10;85.80;;;;;;5070232;28;20693;-48
2021/01/07 00:52:26;;;;;;;25.43;20.07;;;7.00;85.40;;;;;;5069342;28;20663;-48
2021/01/07 00:54:53;;;;;;;25.90;18.70;;;7.00;85.70;;;;;;5070217;28;20664;-48
2021/01/07 00:57:20;;;;;;;25.33;20.43;;;6.90;86.00;;;;;;5069879;28;21169;-48
2021/01/07 00:59:47;;;;;;;26.07;19.70;;;6.80;86.50;;;;;;5070162;28;20726;-48
2021/01/07 01:02:14;;;;;;;29.07;21.20;;;6.70;87.10;;;;;;5069928;28;21200;-48
2021/01/07 01:04:41;;;;;;;26.47;19.63;;;6.80;87.70;;;;;;5070085;28;20690;-48
2021/01/07 01:07:08;;;;;;;25.80;17.90;;;6.90;87.50;;;;;;5069766;28;20699;-48
2021/01/07 01:09:34;;;;;;;26.27;19.20;;;7.00;87.20;;;;;;5069771;28;20630;-48
2021/01/07 01:12:01;;;;;;;24.73;19.80;;;6.90;86.70;;;;;;5069516;28;20717;-48
2021/01/07 01:14:28;;;;;;;27.07;17.23;;;6.80;87.20;;;;;;5065398;28;20663;-49
2021/01/07 01:16:56;;;;;;;24.60;18.87;;;6.70;87.90;;;;;;5068923;28;20623;-49
2021/01/07 01:19:22;;;;;;;30.23;21.90;;;6.70;88.40;;;;;;5070543;28;21219;-49
2021/01/07 01:21:51;;;;;;;22.73;17.80;;;6.70;88.60;;;;;;5069201;28;20630;-49
2021/01/07 01:24:18;;;;;;;25.27;19.13;;;6.80;88.40;;;;;;5062638;28;20691;-48
2021/01/07 01:26:44;;;;;;;26.30;19.93;;;6.80;88.20;;;;;;5049391;28;20636;-48
2021/01/07 01:29:11;;;;;;;30.20;20.50;;;6.80;88.70;;;;;;5064193;28;20876;-47
2021/01/07 01:31:38;;;;;;;25.60;19.20;;;6.80;88.50;;;;;;5071722;28;20652;-48
2021/01/07 01:34:06;;;;;;;23.63;18.10;;;6.80;88.70;;;;;;5074449;28;20652;-48
2021/01/07 01:36:33;;;;;;;24.43;17.77;;;6.80;88.70;;;;;;5073765;28;20639;-48
2021/01/07 01:38:59;;;;;;;32.70;21.40;;;6.70;88.20;;;;;;5072861;28;20634;-48
2021/01/07 01:41:26;;;;;;;24.53;19.37;;;6.70;88.50;;;;;;5073082;28;20614;-48
2021/01/07 01:43:53;;;;;;;28.00;20.30;;;6.70;89.10;;;;;;5073377;28;20735;-48
2021/01/07 01:46:20;;;;;;;24.57;18.73;;;6.70;89.20;;;;;;5073866;28;20630;-48
2021/01/07 01:48:46;;;;;;;29.00;21.23;;;6.70;89.30;;;;;;5064346;28;20692;-48
2021/01/07 01:51:14;;;;;;;25.33;18.47;;;6.70;89.50;;;;;;5053097;28;20627;-49
2021/01/07 01:53:41;;;;;;;26.07;18.33;;;6.70;89.40;;;;;;5052727;28;20732;-49
2021/01/07 01:56:08;;;;;;;25.30;17.70;;;6.80;89.20;;;;;;5053462;28;20635;-49
2021/01/07 01:58:35;;;;;;;28.33;20.00;;;6.90;89.10;;;;;;5068962;28;20622;-49
2021/01/07 02:01:01;;;;;;;31.67;20.80;;;6.90;88.80;;;;;;5072951;28;20626;-49
2021/01/07 02:03:28;;;;;;;23.40;16.77;;;7.00;89.50;;;;;;5072813;28;20708;-49
2021/01/07 02:05:55;;;;;;;21.83;15.27;;;6.90;88.20;;;;;;5072371;28;20630;-49
2021/01/07 02:08:22;;;;;;;26.77;19.43;;;6.90;88.20;;;;;;5072349;28;20661;-49
2021/01/07 02:10:49;;;;;;;23.57;18.70;;;6.80;88.30;;;;;;5071767;28;20725;-48
2021/01/07 02:13:16;;;;;;;28.03;18.80;;;6.80;88.60;;;;;;5072070;28;20655;-48
2021/01/07 02:15:43;;;;;;;29.43;17.77;;;6.80;88.40;;;;;;5072425;28;21046;-47
2021/01/07 02:18:09;;;;;;;23.30;18.23;;;6.80;88.40;;;;;;5072501;28;20685;-48
2021/01/07 02:20:38;;;;;;;22.40;17.83;;;6.80;88.60;;;;;;5072404;28;20688;-47
2021/01/07 02:23:05;;;;;;;24.90;18.17;;;6.60;88.20;;;;;;5072519;28;20649;-47
2021/01/07 02:25:31;;;;;;;25.70;19.20;;;6.60;88.80;;;;;;5072760;28;20711;-48
2021/01/07 02:27:58;;;;;;;24.83;18.80;;;6.60;89.10;;;;;;5073809;28;20649;-48
2021/01/07 02:30:25;;;;;;;27.77;18.90;;;6.70;89.20;;;;;;5072047;28;20626;-48
2021/01/07 02:32:52;;;;;;;23.83;17.07;;;6.70;88.80;;;;;;5071570;28;20736;-48
2021/01/07 02:35:18;;;;;;;27.10;18.87;;;6.60;88.90;;;;;;5072283;28;20662;-47
2021/01/07 02:37:46;;;;;;;24.23;16.67;;;6.50;88.90;;;;;;5071952;28;20706;-48
2021/01/07 02:40:13;;;;;;;23.53;17.00;;;6.50;89.30;;;;;;5071908;28;20630;-48
2021/01/07 02:42:40;;;;;;;25.13;19.63;;;6.50;89.40;;;;;;5071616;28;21016;-49
2021/01/07 02:45:08;;;;;;;24.70;18.90;;;6.40;89.50;;;;;;5071187;28;21003;-48
2021/01/07 02:47:35;;;;;;;24.87;18.47;;;6.40;89.30;;;;;;5071536;28;20630;-49
2021/01/07 02:50:03;;;;;;;23.47;17.80;;;6.30;89.50;;;;;;5070820;28;21185;-48
2021/01/07 02:52:29;;;;;;;27.50;19.07;;;6.30;89.80;;;;;;5071571;28;20658;-48
2021/01/07 02:54:57;;;;;;;28.63;20.80;;;6.40;89.60;;;;;;5071248;28;20731;-49
2021/01/07 02:57:24;;;;;;;31.90;20.10;;;6.40;89.60;;;;;;5071061;28;20688;-49
2021/01/07 02:59:51;;;;;;;24.80;17.03;;;6.40;89.60;;;;;;5071758;28;20639;-49
2021/01/07 03:02:17;;;;;;;29.30;18.80;;;6.40;89.40;;;;;;5072008;28;20626;-49
2021/01/07 03:04:44;;;;;;;22.30;18.20;;;6.50;89.40;;;;;;5071412;28;20717;-49
2021/01/07 03:07:11;;;;;;;25.63;18.67;;;6.50;89.30;;;;;;5071351;28;20662;-47
2021/01/07 03:09:37;;;;;;;25.00;18.07;;;6.60;89.10;;;;;;5072232;28;20788;-47
2021/01/07 03:12:12;;;;;;;30.70;21.80;;;6.70;88.70;;;;;;5071568;28;20695;-48
2021/01/07 03:14:39;;;;;;;25.60;17.07;;;6.70;87.90;;;;;;5070319;28;21033;-47
2021/01/07 03:17:06;;;;;;;24.80;17.30;;;6.70;87.60;;;;;;5072141;28;20640;-48
2021/01/07 03:19:33;;;;;;;27.03;19.43;;;6.80;86.80;;;;;;5070680;28;21063;-48
2021/01/07 03:21:59;;;;;;;21.40;16.90;;;6.70;86.20;;;;;;5071958;28;20978;-49
2021/01/07 03:24:26;;;;;;;23.10;17.37;;;6.70;86.10;;;;;;5072217;28;20727;-48
2021/01/07 03:26:53;;;;;;;25.30;19.03;;;6.60;86.00;;;;;;5071317;28;20621;-49
2021/01/07 03:29:20;;;;;;;27.50;19.97;;;6.60;86.10;;;;;;5072191;28;20679;-48
2021/01/07 03:31:47;;;;;;;27.67;17.20;;;6.60;87.10;;;;;;5072167;28;20631;-49
2021/01/07 03:34:14;;;;;;;25.80;18.87;;;6.70;86.60;;;;;;5071995;28;20732;-49
2021/01/07 03:36:40;;;;;;;22.23;17.33;;;6.70;86.20;;;;;;5072003;28;20676;-49
2021/01/07 03:39:07;;;;;;;26.93;19.60;;;6.70;86.60;;;;;;5058730;28;21236;-49
2021/01/07 03:41:34;;;;;;;22.53;16.57;;;6.80;85.80;;;;;;5051247;28;20674;-48
2021/01/07 03:44:01;;;;;;;25.03;17.40;;;6.80;85.40;;;;;;5061459;28;20660;-49
2021/01/07 03:46:28;;;;;;;26.00;19.93;;;6.80;85.00;;;;;;5070735;28;20639;-49
2021/01/07 03:48:55;;;;;;;21.10;17.17;;;6.70;85.10;;;;;;5071687;28;20729;-48
2021/01/07 03:51:22;;;;;;;22.60;17.60;;;6.80;85.30;;;;;;5071771;28;20743;-49
2021/01/07 03:53:48;;;;;;;23.97;16.70;;;6.70;85.20;;;;;;5070619;28;21310;-49
2021/01/07 03:56:15;;;;;;;22.13;16.90;;;6.70;85.30;;;;;;5071149;28;20681;-49
2021/01/07 03:58:42;;;;;;;24.20;17.13;;;6.60;85.50;;;;;;5070931;28;20672;-48
2021/01/07 04:01:09;;;;;;;17.80;14.80;;;6.60;85.90;;;;;;5071663;28;20687;-48
2021/01/07 04:03:36;;;;;;;22.60;16.80;;;6.50;85.50;;;;;;5071001;28;20620;-48
2021/01/07 04:06:03;;;;;;;23.23;15.70;;;6.60;85.50;;;;;;5071742;28;20683;-49
2021/01/07 04:08:30;;;;;;;23.37;18.03;;;6.70;85.50;;;;;;5071467;28;20613;-48
2021/01/07 04:10:57;;;;;;;22.30;17.37;;;6.70;85.10;;;;;;5071238;28;21227;-48
2021/01/07 04:13:23;;;;;;;21.83;16.00;;;6.80;84.90;;;;;;5070010;28;20728;-48
2021/01/07 04:15:50;;;;;;;26.57;18.00;;;6.80;84.10;;;;;;5070763;28;20634;-50
2021/01/07 04:18:17;;;;;;;22.43;17.50;;;6.90;83.80;;;;;;5070084;28;21004;-50
2021/01/07 04:20:44;;;;;;;19.90;16.60;;;6.70;83.80;;;;;;5069880;28;20633;-49
2021/01/07 04:23:11;;;;;;;23.07;18.03;;;6.70;84.40;;;;;;5068046;28;20619;-49
2021/01/07 04:25:38;;;;;;;21.07;16.80;;;6.70;84.50;;;;;;5065574;28;21050;-50
2021/01/07 04:28:05;;;;;;;20.00;15.80;;;6.70;84.70;;;;;;5047571;28;20637;-49
2021/01/07 04:30:31;;;;;;;19.83;15.47;;;6.70;84.30;;;;;;5068993;28;20785;-48
2021/01/07 04:32:58;;;;;;;26.00;15.80;;;6.60;84.20;;;;;;5069714;28;20720;-49
2021/01/07 04:35:25;;;;;;;16.70;13.67;;;6.50;84.20;;;;;;5069398;28;20658;-49
2021/01/07 04:37:53;;;;;;;18.70;14.87;;;6.50;84.30;;;;;;5069826;28;20702;-49
2021/01/07 04:40:19;;;;;;;22.43;16.30;;;6.40;84.00;;;;;;5069766;28;20687;-49
2021/01/07 04:42:46;;;;;;;17.07;14.27;;;6.40;84.00;;;;;;5070117;28;20730;-49
2021/01/07 04:45:13;;;;;;;20.33;14.67;;;6.40;83.80;;;;;;5069543;28;20719;-49
2021/01/07 04:47:40;;;;;;;20.23;14.77;;;6.40;82.70;;;;;;5069676;28;21196;-48
2021/01/07 04:50:08;;;;;;;23.00;18.23;;;6.30;83.10;;;;;;5069951;28;20631;-50
2021/01/07 04:52:35;;;;;;;25.50;17.13;;;6.30;83.70;;;;;;5069949;28;20629;-50
2021/01/07 04:55:03;;;;;;;21.87;15.40;;;6.40;84.40;;;;;;5069517;28;21019;-48
2021/01/07 04:57:30;;;;;;;21.50;16.40;;;6.50;85.30;;;;;;5069275;28;20669;-49
2021/01/07 04:59:56;;;;;;;20.43;13.77;;;6.40;84.90;;;;;;5069578;28;20634;-48
2021/01/07 05:02:23;;;;;;;22.67;17.03;;;6.40;85.00;;;;;;5069248;28;20652;-48
2021/01/07 05:04:50;;;;;;;18.03;13.73;;;6.30;85.20;;;;;;5069747;28;20688;-49
2021/01/07 05:07:18;;;;;;;20.10;15.77;;;6.20;85.40;;;;;;5070901;28;21228;-49
2021/01/07 05:09:44;;;;;;;24.77;17.03;;;6.20;86.20;;;;;;5073473;28;20684;-50
2021/01/07 05:12:12;;;;;;;26.60;18.57;;;6.20;87.00;;;;;;5073635;28;21005;-49
2021/01/07 05:14:43;;;;;;;25.00;17.10;;;6.30;87.10;;;;;;5072962;28;20696;-50
2021/01/07 05:17:11;;;;;;;24.43;15.10;;;6.40;87.00;;;;;;5066227;28;20672;-49
2021/01/07 05:19:38;;;;;;;23.67;17.20;;;6.40;86.60;;;;;;5073238;28;20676;-50
2021/01/07 05:22:04;;;;;;;20.77;17.20;;;6.30;85.90;;;;;;5073660;28;20662;-49
2021/01/07 05:24:32;;;;;;;21.10;15.17;;;6.20;86.10;;;;;;5073206;28;20657;-49
2021/01/07 05:27:04;;;;;;;21.93;16.10;;;6.20;86.50;;;;;;5074239;28;20631;-50
2021/01/07 05:29:32;;;;;;;22.37;16.57;;;6.30;86.30;;;;;;5073095;28;20698;-50
2021/01/07 05:31:59;;;;;;;22.40;17.07;;;6.30;86.10;;;;;;5073408;28;20626;-50
2021/01/07 05:34:25;;;;;;;26.10;16.10;;;6.30;86.10;;;;;;5072919;28;20764;-49
2021/01/07 05:36:57;;;;;;;23.07;17.63;;;6.20;85.80;;;;;;5073193;28;21122;-47
2021/01/07 05:39:23;;;;;;;23.43;14.70;;;6.10;86.10;;;;;;5065022;28;20676;-50
2021/01/07 05:41:52;;;;;;;16.57;13.60;;;6.10;86.30;;;;;;5064806;28;20667;-50
2021/01/07 05:44:21;;;;;;;17.23;14.13;;;6.00;86.30;;;;;;5073515;28;20651;-50
2021/01/07 05:46:49;;;;;;;23.00;15.90;;;5.90;85.70;;;;;;5073108;28;20633;-49
2021/01/07 05:49:19;;;;;;;19.03;14.20;;;5.90;86.10;;;;;;5073001;28;20641;-50
2021/01/07 05:51:46;;;;;;;24.97;17.53;;;5.90;86.10;;;;;;5073190;28;20622;-49
2021/01/07 05:54:13;;;;;;;25.93;15.80;;;5.90;86.60;;;;;;5072456;28;21006;-49
2021/01/07 05:56:40;;;;;;;21.60;16.37;;;6.00;86.60;;;;;;5073171;28;21018;-49
2021/01/07 05:59:07;;;;;;;25.23;18.10;;;6.10;86.30;;;;;;5072864;28;20625;-49
2021/01/07 06:01:34;;;;;;;23.70;16.47;;;6.20;85.10;;;;;;5073282;28;20623;-49
2021/01/07 06:04:01;;;;;;;24.13;17.10;;;6.10;84.90;;;;;;5072644;28;20657;-48
2021/01/07 06:06:28;;;;;;;22.27;15.53;;;6.10;85.00;;;;;;5073076;28;20625;-48
2021/01/07 06:08:55;;;;;;;26.23;16.77;;;6.00;84.90;;;;;;5072711;28;20633;-48
2021/01/07 06:11:23;;;;;;;23.20;15.10;;;5.90;86.10;;;;;;5072223;28;20772;-48
2021/01/07 06:13:50;;;;;;;24.40;18.00;;;5.90;86.50;;;;;;5071955;28;21007;-48
2021/01/07 06:16:18;;;;;;;24.93;16.17;;;5.90;86.30;;;;;;5072511;28;20682;-49
2021/01/07 06:18:45;;;;;;;22.87;17.33;;;6.00;86.90;;;;;;5070534;28;20762;-49
2021/01/07 06:21:13;;;;;;;23.80;18.17;;;6.00;86.60;;;;;;5072413;28;21032;-48
2021/01/07 06:23:41;;;;;;;21.40;17.47;;;6.10;86.00;;;;;;5072355;28;20653;-49
2021/01/07 06:26:17;;;;;;;21.27;16.50;;;6.10;85.80;;;;;;5072105;28;21000;-49
2021/01/07 06:28:45;;;;;;;22.77;16.03;;;6.10;86.00;;;;;;5072228;28;21165;-48
2021/01/07 06:31:14;;;;;;;22.63;16.37;;;6.10;86.00;;;;;;5072156;28;21253;-48
2021/01/07 06:33:42;;;;;;;23.60;17.90;;;6.20;86.10;;;;;;5071227;28;21256;-49
2021/01/07 06:36:09;;;;;;;24.47;17.80;;;6.20;86.30;;;;;;5072542;28;20634;-48
2021/01/07 06:38:37;;;;;;;24.27;17.27;;;6.20;86.00;;;;;;5071747;28;21041;-49
2021/01/07 06:41:03;;;;;;;22.13;16.50;;;6.10;85.90;;;;;;5071826;28;21134;-48
2021/01/07 06:43:31;;;;;;;23.20;17.20;;;6.20;86.60;;;;;;5071521;28;20621;-48
2021/01/07 06:45:58;;;;;;;22.77;16.57;;;6.20;86.50;;;;;;5072071;28;20637;-48
2021/01/07 06:48:26;;;;;;;25.00;17.30;;;6.20;87.10;;;;;;5072006;28;20686;-48
2021/01/07 06:50:55;;;;;;;25.60;18.63;;;6.20;87.30;;;;;;5071752;28;20994;-48
2021/01/07 06:53:22;;;;;;;22.20;16.67;;;6.20;86.50;;;;;;5071405;28;20692;-48
2021/01/07 06:56:17;;;;;;;24.40;18.00;;;6.10;86.80;;;;;;5071729;28;20683;-48
2021/01/07 06:58:44;;;;;;;26.57;18.80;;;6.10;86.80;;;;;;5064418;28;20674;-48
2021/01/07 07:01:13;;;;;;;31.13;19.27;;;6.20;87.30;;;;;;5071902;28;21122;-47
2021/01/07 07:03:50;;;;;;;26.77;18.60;;;6.20;86.70;;;;;;5071150;28;20700;-48
2021/01/07 07:06:18;;;;;;;28.50;18.83;;;6.20;86.90;;;;;;5072031;28;20690;-48
2021/01/07 07:08:46;;;;;;;32.67;20.67;;;6.30;86.90;;;;;;5071401;28;20984;-47
2021/01/07 07:11:13;;;;;;;26.97;19.30;;;6.30;86.80;;;;;;5072030;28;20679;-47
2021/01/07 07:13:42;;;;;;;28.97;16.67;;;6.40;86.70;;;;;;5071165;28;20670;-48
2021/01/07 07:16:10;;;;;;;26.30;18.63;;;6.40;86.30;;;;;;5071615;28;20637;-48
2021/01/07 07:18:38;;;;;;;26.30;19.20;;;6.50;85.90;;;;;;5071629;28;21156;-48
2021/01/07 07:21:18;;;;;;;22.07;16.00;;;6.50;85.80;;;;;;5071176;28;20663;-48
2021/01/07 07:23:45;;;;;;;23.80;18.70;;;6.50;85.60;;;;;;5071307;28;20642;-49
2021/01/07 07:26:13;;;;;;;24.63;16.53;;;6.50;85.20;;;;;;5071472;28;20625;-49
2021/01/07 07:28:44;;;;;;;27.77;18.77;;;6.60;85.10;;;;;;5071483;28;20670;-49
2021/01/07 07:31:11;;;;;;;25.07;16.03;;;6.50;84.80;;;;;;5070639;28;20622;-49
2021/01/07 07:33:39;;;;;;;19.37;15.67;;;6.50;84.80;;;;;;5071710;28;22053;-49
2021/01/07 07:36:07;;;;;;;22.83;17.00;;;6.40;85.30;;;;;;5071549;28;20757;-49
2021/01/07 07:38:35;;;;;;;22.03;16.10;;;6.40;85.40;;;;;;5070763;28;20626;-49
2021/01/07 07:41:03;;;;;;;25.40;16.50;;;6.40;85.70;;;;;;5056179;28;20700;-49
2021/01/07 07:43:31;;;;;;;22.80;16.97;;;6.40;85.70;;;;;;5051136;28;20700;-49
2021/01/07 07:45:59;;;;;;;26.73;15.77;;;6.50;85.90;;;;;;5050987;28;20722;-48
2021/01/07 07:48:26;;;;;;;22.97;17.83;;;6.50;85.70;;;;;;5050877;28;20615;-49
2021/01/07 07:51:04;;;;;;;21.27;17.43;;;6.50;85.80;;;;;;5050459;28;21044;-48
2021/01/07 07:53:31;;;;;;;23.10;17.47;;;6.40;86.00;;;;;;5050415;28;20674;-48
2021/01/07 07:55:58;;;;;;;21.53;15.23;;;6.40;86.30;;;;;;5050352;28;20676;-48
2021/01/07 07:58:25;;;;;;;21.37;14.20;;;6.40;86.40;;;;;;5050290;28;20623;-49
2021/01/07 08:00:52;;;;;;;25.93;15.43;;;6.50;86.40;;;;;;5050346;28;20626;-48
2021/01/07 08:03:26;;;;;;;19.90;14.97;;;6.50;86.30;;;;;;5050385;28;20626;-49
2021/01/07 08:05:53;;;;;;;22.33;16.67;;;6.40;85.90;;;;;;5032217;28;20685;-49
2021/01/07 08:08:24;;;;;;;21.00;15.67;;;6.40;86.00;;;;;;5056532;28;20683;-47
2021/01/07 08:10:51;;;;;;;21.03;15.70;;;6.40;86.30;;;;;;5069972;28;20637;-48
2021/01/07 08:13:19;;;;;;;21.00;16.00;;;6.40;86.40;;;;;;5070421;28;20672;-48
2021/01/07 08:15:47;;;;;;;21.67;14.37;;;6.40;86.70;;;;;;5070269;28;20694;-48
2021/01/07 08:18:15;;;;;;;23.90;14.37;;;6.50;86.90;;;;;;5070107;28;20626;-49
2021/01/07 08:20:42;;;;;;;22.10;15.93;;;6.50;86.80;;;;;;5052182;28;21217;-49
2021/01/07 08:23:09;;;;;;;20.20;14.80;;;6.50;86.50;;;;;;5069894;28;20626;-49
2021/01/07 08:25:36;;;;;;;17.80;14.30;;;6.50;86.70;;;;;;5069662;28;20705;-48
2021/01/07 08:28:09;;;;;;;22.70;16.37;;;6.50;86.90;;;;;;5069946;28;20989;-49
2021/01/07 08:30:37;;;;;;;24.60;15.43;;;6.50;87.00;;;;;;5070406;28;20638;-49
2021/01/07 08:33:04;;;;;;;23.37;15.80;;;6.60;86.60;;;;;;5069704;28;20657;-49
2021/01/07 08:35:31;;;;;;;18.10;13.73;;;6.60;86.20;;;;;;5069738;28;21078;-48
2021/01/07 08:37:59;;;;;;;29.13;16.07;;;6.60;86.10;;;;;;5069618;28;21472;-48
2021/01/07 08:40:26;;;;;;;19.83;14.40;;;6.60;85.80;;;;;;5070139;28;20696;-48
2021/01/07 08:42:53;;;;;;;18.50;15.10;;;6.60;85.60;;;;;;5049062;28;20697;-48
2021/01/07 08:45:26;;;;;;;19.60;13.90;;;6.70;85.80;;;;;;5049742;28;20694;-48
2021/01/07 08:47:53;;;;;;;21.33;14.77;;;6.70;85.50;;;;;;5056133;28;20627;-48
2021/01/07 08:50:19;;;;;;;21.67;15.20;;;6.70;85.50;;;;;;5069046;28;20660;-48
2021/01/07 08:52:50;;;;;;;19.40;15.90;;;6.60;85.60;;;;;;5070390;28;20681;-48
2021/01/07 08:55:18;;;;;;;17.73;13.50;;;6.60;86.10;;;;;;5069261;28;20675;-48
2021/01/07 08:57:44;;;;;;;19.23;14.40;;;6.60;86.10;;;;;;5070417;28;20664;-48
2021/01/07 09:00:15;;;;;;;20.70;14.70;;;6.60;86.10;;;;;;5069924;28;20614;-49
2021/01/07 09:02:42;;;;;;;20.30;14.63;;;6.50;85.90;;;;;;5069340;28;20630;-48
2021/01/07 09:05:09;;;;;;;21.60;16.53;;;6.60;86.40;;;;;;5069356;28;20666;-49
2021/01/07 09:07:36;;;;;;;18.63;13.70;;;6.60;86.20;;;;;;5069635;28;20637;-49
2021/01/07 09:10:04;;;;;;;18.77;14.67;;;6.60;86.20;;;;;;5069769;28;20634;-48
2021/01/07 09:12:32;;;;;;;21.83;15.00;;;6.60;86.50;;;;;;5068728;28;20701;-48
2021/01/07 09:15:00;;;;;;;21.00;14.63;;;6.70;86.90;;;;;;5070347;28;20747;-47
2021/01/07 09:17:38;;;;;;;15.43;12.50;;;6.80;87.70;;;;;;5070182;28;20683;-49
2021/01/07 09:20:06;;;;;;;17.20;12.90;;;7.10;88.50;;;;;;5070928;28;20689;-50
2021/01/07 09:22:32;;;;;;;16.97;11.33;;;7.30;87.60;;;;;;5066528;28;21229;-49
2021/01/07 09:25:00;;;;;;;19.50;12.60;;;7.30;83.30;;;;;;5069246;28;21227;-49
2021/01/07 09:27:27;;;;;;;19.40;14.47;;;7.10;83.10;;;;;;5069804;28;20694;-49
2021/01/07 09:29:54;;;;;;;17.27;13.00;;;7.10;83.50;;;;;;5068831;28;20623;-49
2021/01/07 09:32:21;;;;;;;18.60;13.73;;;7.10;82.80;;;;;;5068752;28;20661;-48
2021/01/07 09:34:48;;;;;;;20.10;13.80;;;7.10;83.00;;;;;;5051265;28;21002;-49
2021/01/07 09:37:17;;;;;;;16.50;13.00;;;7.00;83.30;;;;;;5069816;28;20694;-49
2021/01/07 09:39:44;;;;;;;21.77;15.87;;;6.90;83.90;;;;;;5067940;28;20629;-49
2021/01/07 09:42:11;;;;;;;19.50;12.83;;;6.90;84.00;;;;;;5065214;28;20628;-47
2021/01/07 09:44:38;;;;;;;15.80;11.60;;;6.90;83.50;;;;;;5068608;28;20726;-49
2021/01/07 09:47:06;;;;;;;16.40;13.20;;;6.90;83.30;;;;;;5067572;28;20649;-48
2021/01/07 09:49:33;;;;;;;19.57;13.13;;;6.90;83.10;;;;;;5069164;28;20655;-48
2021/01/07 09:52:00;;;;;;;17.80;13.00;;;6.90;83.60;;;;;;5069575;28;21160;-49
2021/01/07 09:54:27;;;;;;;17.43;13.20;;;6.90;84.80;;;;;;5071735;28;21237;-49
2021/01/07 09:56:55;;;;;;;15.30;11.33;;;6.80;84.10;;;;;;5072359;28;20684;-47
2021/01/07 09:59:22;;;;;;;14.27;10.77;;;6.80;84.60;;;;;;5072391;28;20673;-49
2021/01/07 10:01:52;;;;;;;15.00;10.00;;;6.80;84.40;;;;;;5072973;28;20629;-50
2021/01/07 10:04:20;;;;;;;18.70;12.50;;;6.50;83.90;;;;;;5054111;28;20658;-48
2021/01/07 10:06:46;;;;;;;11.43;8.60;;;6.50;84.90;;;;;;5072376;28;20622;-49
2021/01/07 10:09:13;;;;;;;18.00;12.63;;;6.50;84.90;;;;;;5072512;28;20621;-49
2021/01/07 10:11:40;;;;;;;14.97;10.57;;;6.50;84.60;;;;;;5071245;28;20622;-49
2021/01/07 10:14:07;;;;;;;15.13;12.03;;;6.50;85.00;;;;;;5072170;28;20669;-49
2021/01/07 10:16:33;;;;;;;18.67;11.97;;;6.30;84.60;;;;;;5072163;28;21030;-50
2021/01/07 10:19:00;;;;;;;15.47;9.47;;;6.30;85.60;;;;;;5072483;28;21329;-49
2021/01/07 10:21:29;;;;;;;17.17;11.10;;;6.30;86.10;;;;;;5072402;28;20984;-51
2021/01/07 10:23:55;;;;;;;17.53;12.60;;;6.20;86.30;;;;;;5072427;28;20653;-49
2021/01/07 10:26:22;;;;;;;19.77;14.13;;;6.30;87.30;;;;;;5072075;28;20709;-49
2021/01/07 10:28:49;;;;;;;16.57;11.97;;;6.30;87.40;;;;;;5070302;28;20715;-50
2021/01/07 10:31:16;;;;;;;17.93;12.30;;;6.40;87.60;;;;;;5070159;28;20680;-51
2021/01/07 10:33:44;;;;;;;15.63;12.73;;;6.40;87.40;;;;;;5060065;28;21075;-50
2021/01/07 10:36:13;;;;;;;22.90;13.87;;;6.50;87.20;;;;;;5071259;28;20642;-50
2021/01/07 10:38:40;;;;;;;18.27;12.83;;;6.60;86.80;;;;;;5071320;28;20632;-50
2021/01/07 10:41:07;;;;;;;16.70;13.10;;;6.60;86.50;;;;;;5053403;28;20634;-50
2021/01/07 10:43:34;;;;;;;19.70;15.00;;;6.70;86.60;;;;;;5071848;28;21224;-50
2021/01/07 10:46:01;;;;;;;15.30;11.93;;;6.70;86.80;;;;;;5071651;28;20617;-50
2021/01/07 10:48:28;;;;;;;20.70;14.33;;;6.80;86.80;;;;;;5071631;28;20666;-50
2021/01/07 10:50:56;;;;;;;22.83;14.37;;;6.80;86.30;;;;;;5071181;28;20634;-50
2021/01/07 10:53:47;;;;;;;20.27;14.87;;;6.90;86.80;;;;;;5070984;28;21165;-50
2021/01/07 10:56:19;;;;;;;18.67;12.13;;;6.90;86.50;;;;;;5071476;28;20657;-50
2021/01/07 10:58:54;;;;;;;19.80;14.43;;;7.00;86.80;;;;;;5071447;28;20699;-51
2021/01/07 11:01:30;;;;;;;18.80;14.73;;;7.10;86.60;;;;;;5071551;28;20629;-51
2021/01/07 11:04:21;;;;;;;21.60;15.70;;;7.10;86.50;;;;;;5071236;28;20654;-50
2021/01/07 11:06:51;;;;;;;18.60;15.27;;;7.10;85.90;;;;;;5057826;28;20622;-51
2021/01/07 11:09:20;;;;;;;19.53;13.20;;;7.20;85.80;;;;;;5071088;28;20656;-51
2021/01/07 11:11:50;;;;;;;20.87;13.90;;;7.20;85.40;;;;;;5070561;28;20691;-51
2021/01/07 11:14:20;;;;;;;17.17;12.80;;;7.30;85.20;;;;;;5071012;28;20725;-51
2021/01/07 11:16:48;;;;;;;17.80;13.80;;;7.30;84.80;;;;;;5070467;28;20745;-51
2021/01/07 11:19:15;;;;;;;18.73;12.80;;;7.30;84.80;;;;;;5070986;28;20661;-53
2021/01/07 11:21:43;;;;;;;17.10;13.10;;;7.00;84.30;;;;;;5071875;28;20680;-51
2021/01/07 11:24:10;;;;;;;23.50;14.73;;;6.90;85.50;;;;;;5070754;28;20686;-49
2021/01/07 11:26:38;;;;;;;19.40;13.80;;;6.90;84.70;;;;;;5070819;28;20641;-49
2021/01/07 11:29:04;;;;;;;20.50;14.73;;;7.00;84.70;;;;;;5071242;28;21003;-49
2021/01/07 11:31:33;;;;;;;17.27;12.63;;;7.00;84.30;;;;;;5051365;28;20650;-49
2021/01/07 11:33:59;;;;;;;16.43;12.23;;;7.10;84.10;;;;;;5050622;28;20705;-50
2021/01/07 11:36:28;;;;;;;18.07;14.03;;;7.20;83.60;;;;;;5050841;28;20686;-49
2021/01/07 11:38:59;;;;;;;18.23;13.23;;;7.30;82.70;;;;;;5051247;28;20683;-49
2021/01/07 11:41:35;;;;;;;21.33;15.93;;;7.30;82.10;;;;;;5050269;28;20621;-50
2021/01/07 11:44:13;;;;;;;19.50;12.70;;;7.30;81.90;;;;;;5050875;28;20665;-49
2021/01/07 11:46:41;;;;;;;18.97;13.30;;;7.30;82.00;;;;;;5050186;28;21048;-49
2021/01/07 11:49:07;;;;;;;16.77;12.60;;;7.30;81.50;;;;;;5062657;28;20665;-49
2021/01/07 11:51:34;;;;;;;13.23;11.07;;;7.30;81.10;;;;;;5069891;28;21163;-49
2021/01/07 11:54:01;;;;;;;19.90;12.67;;;7.30;80.50;;;;;;5070505;28;20664;-50
2021/01/07 11:56:29;;;;;;;18.00;12.97;;;7.20;80.60;;;;;;5070540;28;20622;-51
2021/01/07 11:58:55;;;;;;;16.53;12.00;;;7.10;80.70;;;;;;5070235;28;20679;-50
2021/01/07 12:01:23;;;;;;;18.87;12.03;;;7.10;81.80;;;;;;5070786;28;20638;-51
2021/01/07 12:03:50;;;;;;;20.17;13.47;;;7.10;81.10;;;;;;5069834;28;20651;-49
2021/01/07 12:06:17;;;;;;;17.57;9.90;;;7.10;81.20;;;;;;5070177;28;20665;-48
2021/01/07 12:09:03;;;;;;;18.10;13.60;;;7.10;83.50;;;;;;5069831;28;21150;-49
2021/01/07 12:11:33;;;;;;;13.67;10.23;;;7.00;81.70;;;;;;5069873;28;20630;-50
2021/01/07 12:14:07;;;;;;;18.87;13.30;;;7.00;81.90;;;;;;5069422;28;21249;-50
2021/01/07 12:16:39;;;;;;;19.80;13.33;;;7.00;82.50;;;;;;5069337;28;20638;-50
2021/01/07 12:19:06;;;;;;;15.77;10.90;;;7.10;82.10;;;;;;5070078;28;20696;-50
2021/01/07 12:21:33;;;;;;;15.17;10.37;;;7.10;81.50;;;;;;5064645;28;20672;-49
2021/01/07 12:24:00;;;;;;;16.57;11.77;;;7.10;82.00;;;;;;5049448;28;20815;-49
2021/01/07 12:26:27;;;;;;;16.90;12.37;;;7.10;81.70;;;;;;5049907;28;20975;-50
2021/01/07 12:28:54;;;;;;;22.20;13.87;;;7.10;81.00;;;;;;5049768;28;20623;-50
2021/01/07 12:31:21;;;;;;;14.20;10.40;;;7.10;80.60;;;;;;5049723;28;20659;-49
2021/01/07 12:33:56;;;;;;;16.57;12.97;;;7.20;80.80;;;;;;5050016;28;20657;-49
2021/01/07 12:36:29;;;;;;;13.90;10.50;;;7.30;80.60;;;;;;5049286;28;21064;-49
2021/01/07 12:39:03;;;;;;;17.83;12.73;;;7.20;80.30;;;;;;5049118;28;20690;-48
2021/01/07 12:41:32;;;;;;;18.80;11.77;;;7.20;80.60;;;;;;5048837;28;20860;-48